Strona główna
METAR-TAF:

METAR-TAF

Lotnisko :

Fourchambault

Nevers, Francja

Szerokość geograficzna: 47-00N, Długość geograficzna: 003-06E, wysokość: 180 m

Aktualna obserwacja pogody

Raport powstał 25 minut temu, godzina 11:30 UTC
Wiatr 9 kt od wschodnio-południowy wschód
Temperatura 13°C
Wilgotność 72%
Ciśnienie 1004 hPa
Widzialność 10 km lub więcej
Brak chmur poniżej 1500 m i brak chmur cumulonimbus

METAR: LFQG 161130Z AUTO 12009KT CAVOK 13/08 Q1004

czas: 12:55 (11:55 UTC)


TAF: brakujący

Obserwacja i prognoza pogody dla ponad 4000 lotnisk (raport METAR i TAF).

Dostępne stacje oznaczono żółtymi i czerwonymi punktami na mapie.

Najedź kursorem aby zobaczyć nazwę stacji.

Kliknij aby zobaczyć obserwacje i prognozy pogody.

Aby zmienić mapę: kliknij na zielony przycisk z czarnym krzyżykiem, aby powiększyć; na zielony przycisk z myślnikiem, aby pomniejszyć; na zielone strzałki, aby przejść do map sąsiednich.


METAR-TAF: